Time;durP1;ratioP1;P1;durP2;ratioP2;P2;SDS_P1;SDS_P2;PMS_P1;PMS_P2;Temp;Humidity;BMP_temperature;BMP_pressure;BME280_temperature;BME280_humidity;BME280_pressure;Samples;Min_cycle;Max_cycle;Signal;HPM_P1;HPM_P2
2023/09/25 00:00:33;;;;;;;3.78;1.92;;;;;;;;;;5051372;28;20528;-73
2023/09/25 00:03:01;;;;;;;3.00;1.75;;;;;;;;;;5051680;28;20049;-72
2023/09/25 00:05:29;;;;;;;4.00;1.77;;;;;;;;;;5051374;28;20047;-73
2023/09/25 00:07:56;;;;;;;2.88;1.50;;;;;;;;;;5051398;28;20059;-73
2023/09/25 00:10:23;;;;;;;3.55;1.58;;;;;;;;;;5050824;28;20052;-73
2023/09/25 00:12:50;;;;;;;3.05;1.70;;;;;;;;;;5051546;28;20067;-72
2023/09/25 00:15:16;;;;;;;3.30;1.80;;;;;;;;;;5050255;28;20588;-73
2023/09/25 00:17:43;;;;;;;3.97;1.85;;;;;;;;;;5051074;28;20049;-73
2023/09/25 00:20:11;;;;;;;3.47;1.77;;;;;;;;;;5050842;28;20057;-73
2023/09/25 00:22:39;;;;;;;6.35;2.00;;;;;;;;;;5050999;28;20080;-73
2023/09/25 00:25:07;;;;;;;4.95;1.90;;;;;;;;;;5051021;28;20128;-73
2023/09/25 00:27:34;;;;;;;2.92;1.67;;;;;;;;;;5050993;28;20191;-73
2023/09/25 00:30:05;;;;;;;2.80;1.30;;;;;;;;;;5050696;28;20045;-72
2023/09/25 00:32:33;;;;;;;4.25;1.55;;;;;;;;;;5050593;28;20390;-73
2023/09/25 00:35:00;;;;;;;4.30;1.88;;;;;;;;;;5050595;28;20124;-74
2023/09/25 00:37:27;;;;;;;3.33;1.70;;;;;;;;;;5050802;28;20059;-73
2023/09/25 00:39:54;;;;;;;3.15;1.60;;;;;;;;;;5050385;28;20049;-73
2023/09/25 00:42:21;;;;;;;4.22;1.80;;;;;;;;;;5050545;28;20393;-73
2023/09/25 00:44:51;;;;;;;3.47;1.58;;;;;;;;;;5050595;28;20045;-73
2023/09/25 00:47:18;;;;;;;3.40;1.60;;;;;;;;;;5050803;28;20107;-73
2023/09/25 00:49:46;;;;;;;3.28;1.70;;;;;;;;;;5050673;28;20056;-72
2023/09/25 00:52:13;;;;;;;5.03;1.70;;;;;;;;;;5050280;28;20053;-73
2023/09/25 00:54:40;;;;;;;6.32;1.65;;;;;;;;;;5032617;28;20045;-74
2023/09/25 00:57:09;;;;;;;2.70;1.55;;;;;;;;;;5050944;28;20045;-73
2023/09/25 00:59:40;;;;;;;3.38;1.70;;;;;;;;;;5050270;28;20073;-73
2023/09/25 01:02:06;;;;;;;3.03;1.48;;;;;;;;;;5050009;28;20052;-72
2023/09/25 01:04:33;;;;;;;4.00;1.55;;;;;;;;;;5050006;28;20497;-72
2023/09/25 01:07:01;;;;;;;3.78;1.60;;;;;;;;;;5050280;28;20051;-72
2023/09/25 01:09:27;;;;;;;3.90;2.00;;;;;;;;;;5049756;28;20052;-73
2023/09/25 01:11:54;;;;;;;3.70;1.83;;;;;;;;;;5048802;28;20390;-73
2023/09/25 01:14:21;;;;;;;4.15;1.60;;;;;;;;;;5050094;28;20047;-73
2023/09/25 01:16:48;;;;;;;2.95;1.48;;;;;;;;;;5049977;28;20217;-73
2023/09/25 01:19:14;;;;;;;4.45;1.63;;;;;;;;;;5032345;28;20077;-73
2023/09/25 01:21:45;;;;;;;4.03;1.58;;;;;;;;;;5049863;28;20049;-73
2023/09/25 01:24:12;;;;;;;6.65;1.52;;;;;;;;;;5049822;28;20525;-73
2023/09/25 01:26:39;;;;;;;4.25;2.00;;;;;;;;;;5048820;28;20557;-72
2023/09/25 01:29:05;;;;;;;2.65;1.48;;;;;;;;;;5050474;28;20071;-73
2023/09/25 01:31:32;;;;;;;2.90;1.50;;;;;;;;;;5049558;28;20051;-73
2023/09/25 01:33:59;;;;;;;2.95;1.48;;;;;;;;;;5049855;28;20060;-72
2023/09/25 01:36:25;;;;;;;3.47;1.77;;;;;;;;;;5049607;28;20045;-73
2023/09/25 01:38:52;;;;;;;3.83;1.65;;;;;;;;;;5049464;28;20091;-72
2023/09/25 01:41:19;;;;;;;3.28;1.55;;;;;;;;;;5049266;28;20048;-72
2023/09/25 01:43:45;;;;;;;4.13;1.60;;;;;;;;;;5049748;28;20045;-69
2023/09/25 01:46:12;;;;;;;2.63;1.40;;;;;;;;;;5031843;28;20469;-72
2023/09/25 01:48:39;;;;;;;2.53;1.55;;;;;;;;;;5050050;28;20060;-72
2023/09/25 01:51:12;;;;;;;3.50;1.58;;;;;;;;;;5049295;28;20128;-71
2023/09/25 01:53:39;;;;;;;2.90;1.48;;;;;;;;;;5049583;28;20049;-72
2023/09/25 01:56:12;;;;;;;3.28;1.50;;;;;;;;;;5049028;28;20497;-72
2023/09/25 01:58:42;;;;;;;2.85;1.50;;;;;;;;;;5049449;28;20539;-73
2023/09/25 02:01:09;;;;;;;4.10;1.70;;;;;;;;;;5049556;28;20056;-73
2023/09/25 02:03:36;;;;;;;3.78;1.35;;;;;;;;;;5049693;28;20566;-73
2023/09/25 02:06:04;;;;;;;3.47;1.60;;;;;;;;;;5049354;28;20087;-74
2023/09/25 02:08:31;;;;;;;4.05;1.40;;;;;;;;;;5049304;28;20448;-73
2023/09/25 02:10:58;;;;;;;2.90;1.67;;;;;;;;;;5049526;28;20059;-73
2023/09/25 02:13:25;;;;;;;3.13;1.50;;;;;;;;;;5049106;28;20045;-73
2023/09/25 02:15:52;;;;;;;2.22;1.30;;;;;;;;;;5049260;28;20056;-73
2023/09/25 02:18:19;;;;;;;3.03;1.48;;;;;;;;;;5049616;28;20087;-73
2023/09/25 02:20:46;;;;;;;3.00;1.42;;;;;;;;;;5048978;28;20136;-72
2023/09/25 02:23:13;;;;;;;3.35;1.40;;;;;;;;;;5049186;28;20045;-74
2023/09/25 02:25:39;;;;;;;2.85;1.42;;;;;;;;;;5048816;28;20090;-73
2023/09/25 02:28:06;;;;;;;2.75;1.63;;;;;;;;;;5049012;28;20489;-73
2023/09/25 02:30:33;;;;;;;3.83;1.38;;;;;;;;;;5048849;28;20059;-73
2023/09/25 02:33:00;;;;;;;3.08;1.40;;;;;;;;;;5048896;28;20045;-71
2023/09/25 02:35:27;;;;;;;5.60;1.58;;;;;;;;;;5048816;28;20044;-68
2023/09/25 02:37:54;;;;;;;3.25;1.45;;;;;;;;;;5051295;28;20131;-68
2023/09/25 02:40:21;;;;;;;3.45;1.70;;;;;;;;;;5052751;28;20056;-68
2023/09/25 02:42:47;;;;;;;3.17;1.48;;;;;;;;;;5053048;28;20046;-71
2023/09/25 02:45:14;;;;;;;4.28;1.60;;;;;;;;;;5052651;28;20052;-70
2023/09/25 02:47:43;;;;;;;2.85;1.50;;;;;;;;;;5052815;28;20076;-70
2023/09/25 02:50:10;;;;;;;3.33;1.48;;;;;;;;;;5052982;28;20045;-72
2023/09/25 02:52:37;;;;;;;3.03;1.42;;;;;;;;;;5052688;28;20045;-72
2023/09/25 02:55:04;;;;;;;3.03;1.42;;;;;;;;;;5052791;28;20049;-71
2023/09/25 02:57:31;;;;;;;4.47;1.92;;;;;;;;;;5052325;28;20052;-68
2023/09/25 02:59:58;;;;;;;3.78;1.70;;;;;;;;;;5052802;28;20509;-70
2023/09/25 03:02:25;;;;;;;3.72;1.48;;;;;;;;;;5052444;28;20072;-70
2023/09/25 03:04:53;;;;;;;4.90;1.48;;;;;;;;;;5052643;28;20136;-70
2023/09/25 03:07:20;;;;;;;2.40;1.05;;;;;;;;;;5052195;28;20045;-71
2023/09/25 03:09:47;;;;;;;3.90;1.30;;;;;;;;;;5052673;28;20049;-74
2023/09/25 03:12:14;;;;;;;3.05;1.30;;;;;;;;;;5052239;28;20493;-73
2023/09/25 03:14:41;;;;;;;3.33;1.60;;;;;;;;;;5052608;28;20399;-73
2023/09/25 03:17:07;;;;;;;3.58;1.58;;;;;;;;;;5052157;28;20049;-71
2023/09/25 03:19:35;;;;;;;2.58;1.33;;;;;;;;;;5052474;28;20074;-68
2023/09/25 03:22:02;;;;;;;3.72;1.55;;;;;;;;;;5051875;28;20485;-74
2023/09/25 03:24:30;;;;;;;2.75;1.35;;;;;;;;;;5052056;28;20516;-70
2023/09/25 03:26:57;;;;;;;4.25;1.70;;;;;;;;;;5051768;28;20077;-72
2023/09/25 03:29:23;;;;;;;4.10;1.65;;;;;;;;;;5052067;28;20048;-71
2023/09/25 03:31:50;;;;;;;3.00;1.50;;;;;;;;;;5052384;28;20041;-73
2023/09/25 03:34:17;;;;;;;3.28;1.30;;;;;;;;;;5051708;28;20048;-73
2023/09/25 03:36:43;;;;;;;3.92;1.70;;;;;;;;;;5051942;28;20128;-71
2023/09/25 03:39:10;;;;;;;2.78;1.52;;;;;;;;;;5051892;28;20052;-71
2023/09/25 03:41:37;;;;;;;3.17;1.60;;;;;;;;;;5051417;28;20398;-70
2023/09/25 03:44:04;;;;;;;2.88;1.50;;;;;;;;;;5051747;28;20064;-72
2023/09/25 03:46:31;;;;;;;2.65;1.40;;;;;;;;;;5051508;28;20041;-73
2023/09/25 03:49:01;;;;;;;4.25;1.80;;;;;;;;;;5050672;28;20390;-72
2023/09/25 03:51:28;;;;;;;2.70;1.33;;;;;;;;;;5051434;28;20080;-73
2023/09/25 03:53:55;;;;;;;4.72;1.40;;;;;;;;;;5051556;28;20052;-72
2023/09/25 03:56:21;;;;;;;3.22;1.50;;;;;;;;;;5051715;28;20049;-71
2023/09/25 03:58:48;;;;;;;3.30;1.45;;;;;;;;;;5051634;28;20049;-73
2023/09/25 04:01:15;;;;;;;2.50;1.40;;;;;;;;;;5051197;28;20602;-72
2023/09/25 04:03:42;;;;;;;3.25;1.35;;;;;;;;;;5051573;28;20103;-71
2023/09/25 04:06:09;;;;;;;4.28;1.33;;;;;;;;;;5051321;28;20460;-73
2023/09/25 04:08:36;;;;;;;2.60;1.13;;;;;;;;;;5051173;28;20566;-72
2023/09/25 04:11:03;;;;;;;2.53;1.20;;;;;;;;;;5051182;28;20051;-73
2023/09/25 04:13:31;;;;;;;3.72;1.40;;;;;;;;;;5050850;28;20512;-73
2023/09/25 04:15:58;;;;;;;3.45;1.33;;;;;;;;;;5051174;28;20056;-74
2023/09/25 04:18:25;;;;;;;3.75;1.50;;;;;;;;;;5050919;28;20437;-73
2023/09/25 04:20:52;;;;;;;2.28;1.20;;;;;;;;;;5051160;28;20056;-73
2023/09/25 04:23:19;;;;;;;2.45;1.27;;;;;;;;;;5033080;28;20060;-71
2023/09/25 04:25:52;;;;;;;3.00;1.35;;;;;;;;;;5051071;28;20049;-73
2023/09/25 04:28:20;;;;;;;2.88;1.38;;;;;;;;;;5050653;28;20438;-72
2023/09/25 04:30:46;;;;;;;2.97;1.15;;;;;;;;;;5050881;28;20115;-73
2023/09/25 04:33:14;;;;;;;4.45;1.30;;;;;;;;;;5050483;28;20049;-73
2023/09/25 04:35:41;;;;;;;3.13;1.25;;;;;;;;;;5050805;28;20049;-74
2023/09/25 04:38:08;;;;;;;4.55;1.38;;;;;;;;;;5050417;28;20523;-74
2023/09/25 04:40:34;;;;;;;3.22;1.40;;;;;;;;;;5050692;28;20051;-73
2023/09/25 04:43:01;;;;;;;2.28;1.20;;;;;;;;;;5050458;28;20047;-73
2023/09/25 04:45:29;;;;;;;3.47;1.15;;;;;;;;;;5050734;28;20045;-73
2023/09/25 04:47:57;;;;;;;3.67;1.38;;;;;;;;;;5050593;28;20111;-73
2023/09/25 04:50:24;;;;;;;3.35;1.40;;;;;;;;;;5050306;28;20081;-72
2023/09/25 04:52:51;;;;;;;2.50;1.45;;;;;;;;;;5050270;28;20140;-73
2023/09/25 04:55:18;;;;;;;3.55;1.42;;;;;;;;;;5050659;28;20045;-73
2023/09/25 04:57:46;;;;;;;2.58;1.17;;;;;;;;;;5050326;28;20132;-73
2023/09/25 05:00:21;;;;;;;3.08;1.40;;;;;;;;;;5050476;28;20045;-73
2023/09/25 05:02:49;;;;;;;4.93;1.48;;;;;;;;;;5050028;28;20080;-70
2023/09/25 05:05:16;;;;;;;2.92;1.55;;;;;;;;;;5032687;28;20051;-74
2023/09/25 05:07:45;;;;;;;2.45;1.30;;;;;;;;;;5050255;28;20049;-72
2023/09/25 05:10:13;;;;;;;2.70;1.40;;;;;;;;;;5049967;28;20045;-72
2023/09/25 05:12:40;;;;;;;4.28;1.58;;;;;;;;;;5049976;28;20432;-73
2023/09/25 05:15:08;;;;;;;5.22;1.65;;;;;;;;;;5050153;28;20045;-67
2023/09/25 05:17:36;;;;;;;2.22;1.33;;;;;;;;;;5050122;28;20048;-68
2023/09/25 05:20:10;;;;;;;4.63;1.52;;;;;;;;;;5050389;28;20052;-71
2023/09/25 05:22:41;;;;;;;4.88;1.70;;;;;;;;;;5049782;28;20049;-68
2023/09/25 05:25:09;;;;;;;4.03;1.70;;;;;;;;;;5049451;28;20052;-72
2023/09/25 05:27:37;;;;;;;5.50;1.90;;;;;;;;;;5049504;28;20729;-69
2023/09/25 05:30:05;;;;;;;7.25;2.05;;;;;;;;;;5049614;28;20543;-70
2023/09/25 05:32:33;;;;;;;4.88;2.00;;;;;;;;;;5049583;28;20079;-73
2023/09/25 05:35:00;;;;;;;4.90;1.80;;;;;;;;;;5049855;28;20079;-70
2023/09/25 05:37:27;;;;;;;5.40;1.95;;;;;;;;;;5050116;28;20075;-72
2023/09/25 05:39:54;;;;;;;4.38;2.15;;;;;;;;;;5049996;28;20068;-71
2023/09/25 05:42:20;;;;;;;7.03;2.17;;;;;;;;;;5049740;28;20107;-71
2023/09/25 05:44:47;;;;;;;3.83;1.80;;;;;;;;;;5049234;28;20587;-70
2023/09/25 05:47:13;;;;;;;4.15;1.98;;;;;;;;;;5049256;28;20045;-71
2023/09/25 05:49:41;;;;;;;5.55;2.10;;;;;;;;;;5049842;28;20064;-73
2023/09/25 05:52:07;;;;;;;3.95;1.98;;;;;;;;;;5046606;28;20080;-73
2023/09/25 05:54:34;;;;;;;5.30;2.10;;;;;;;;;;5049069;28;20048;-68
2023/09/25 05:57:01;;;;;;;9.20;2.13;;;;;;;;;;5049858;28;20053;-67
2023/09/25 05:59:28;;;;;;;4.80;2.00;;;;;;;;;;5049170;28;20052;-68
2023/09/25 06:01:54;;;;;;;8.07;2.22;;;;;;;;;;5049923;28;20045;-68
2023/09/25 06:04:21;;;;;;;4.40;2.20;;;;;;;;;;5049295;28;20053;-69
2023/09/25 06:06:48;;;;;;;5.78;2.20;;;;;;;;;;5049510;28;20049;-69
2023/09/25 06:09:15;;;;;;;3.97;2.22;;;;;;;;;;5048968;28;20440;-68
2023/09/25 06:11:43;;;;;;;5.32;2.15;;;;;;;;;;5051703;28;20300;-70
2023/09/25 06:14:10;;;;;;;4.15;1.90;;;;;;;;;;5055934;28;20045;-70
2023/09/25 06:16:38;;;;;;;6.38;2.13;;;;;;;;;;5055974;28;20049;-69
2023/09/25 06:19:08;;;;;;;6.13;2.08;;;;;;;;;;5056013;28;20072;-71
2023/09/25 06:21:35;;;;;;;5.70;1.98;;;;;;;;;;5056191;28;20152;-72
2023/09/25 06:24:03;;;;;;;3.55;1.70;;;;;;;;;;5070714;28;20076;-73
2023/09/25 06:26:30;;;;;;;5.15;1.85;;;;;;;;;;5056206;28;20067;-74
2023/09/25 06:28:58;;;;;;;6.07;1.90;;;;;;;;;;5055833;28;20084;-73
2023/09/25 06:31:25;;;;;;;3.65;1.83;;;;;;;;;;5056010;28;20052;-74
2023/09/25 06:33:53;;;;;;;6.68;1.98;;;;;;;;;;5055814;28;20056;-71
2023/09/25 06:36:19;;;;;;;4.30;1.50;;;;;;;;;;5056244;28;20045;-73
2023/09/25 06:38:46;;;;;;;8.20;1.80;;;;;;;;;;5055443;28;20051;-68
2023/09/25 06:41:13;;;;;;;4.53;1.80;;;;;;;;;;5055714;28;20045;-68
2023/09/25 06:43:40;;;;;;;5.30;1.77;;;;;;;;;;5055636;28;20052;-67
2023/09/25 06:46:07;;;;;;;3.22;1.58;;;;;;;;;;5055676;28;20084;-68
2023/09/25 06:48:33;;;;;;;3.92;1.58;;;;;;;;;;5055586;28;20053;-69
2023/09/25 06:51:01;;;;;;;3.72;1.85;;;;;;;;;;5055734;28;20045;-67
2023/09/25 06:53:28;;;;;;;4.78;1.80;;;;;;;;;;5055366;28;20416;-67
2023/09/25 06:55:55;;;;;;;6.38;1.95;;;;;;;;;;5055997;28;20044;-69
2023/09/25 06:58:22;;;;;;;4.60;2.00;;;;;;;;;;5055560;28;20048;-68
2023/09/25 07:00:50;;;;;;;6.13;2.15;;;;;;;;;;5055498;28;20049;-70
2023/09/25 07:03:23;;;;;;;4.55;2.28;;;;;;;;;;5055367;28;20045;-68
2023/09/25 07:05:51;;;;;;;4.22;1.80;;;;;;;;;;5055504;28;20045;-68
2023/09/25 07:08:18;;;;;;;5.05;2.10;;;;;;;;;;5055401;28;20072;-71
2023/09/25 07:10:46;;;;;;;4.60;2.13;;;;;;;;;;5055415;28;20099;-73
2023/09/25 07:13:13;;;;;;;7.13;2.05;;;;;;;;;;5055420;28;20077;-72
2023/09/25 07:15:39;;;;;;;3.53;1.70;;;;;;;;;;5055163;28;20056;-67
2023/09/25 07:18:06;;;;;;;5.13;2.20;;;;;;;;;;5038004;28;20123;-70
2023/09/25 07:20:33;;;;;;;5.97;2.08;;;;;;;;;;5055643;28;20041;-71
2023/09/25 07:23:00;;;;;;;5.15;2.08;;;;;;;;;;5054514;28;20041;-67
2023/09/25 07:25:28;;;;;;;4.65;2.20;;;;;;;;;;5051994;28;20081;-67
2023/09/25 07:27:55;;;;;;;7.53;2.20;;;;;;;;;;5052434;28;20051;-69
2023/09/25 07:30:22;;;;;;;3.85;1.85;;;;;;;;;;5052232;28;20052;-70
2023/09/25 07:32:49;;;;;;;5.68;1.90;;;;;;;;;;5052486;28;20049;-67
2023/09/25 07:35:15;;;;;;;3.63;1.73;;;;;;;;;;5051405;28;20045;-67
2023/09/25 07:37:44;;;;;;;3.35;1.88;;;;;;;;;;5052597;28;20099;-67
2023/09/25 07:40:13;;;;;;;6.40;1.63;;;;;;;;;;5051922;28;20051;-67
2023/09/25 07:42:42;;;;;;;4.43;1.95;;;;;;;;;;5052321;28;20274;-67
2023/09/25 07:45:11;;;;;;;4.93;1.80;;;;;;;;;;5051791;28;20076;-67
2023/09/25 07:47:40;;;;;;;4.95;1.80;;;;;;;;;;5051620;28;20563;-66
2023/09/25 07:50:11;;;;;;;3.97;1.58;;;;;;;;;;5051572;28;20049;-67
2023/09/25 07:52:38;;;;;;;4.72;1.77;;;;;;;;;;5052017;28;20166;-67
2023/09/25 07:55:11;;;;;;;2.80;1.40;;;;;;;;;;5051204;28;20053;-67
2023/09/25 07:57:43;;;;;;;3.38;1.60;;;;;;;;;;5051923;28;20048;-67
2023/09/25 08:00:22;;;;;;;5.30;1.67;;;;;;;;;;5051782;28;20045;-68
2023/09/25 08:02:52;;;;;;;4.57;1.60;;;;;;;;;;5052005;28;20045;-70
2023/09/25 08:05:19;;;;;;;4.03;1.60;;;;;;;;;;5051366;28;20414;-71
2023/09/25 08:07:46;;;;;;;4.72;1.60;;;;;;;;;;5051359;28;20075;-67
2023/09/25 08:10:13;;;;;;;3.50;1.63;;;;;;;;;;5051361;28;20045;-69
2023/09/25 08:12:40;;;;;;;5.88;1.75;;;;;;;;;;5051953;28;20048;-68
2023/09/25 08:15:08;;;;;;;3.80;1.67;;;;;;;;;;5051168;28;20045;-73
2023/09/25 08:17:35;;;;;;;2.47;1.20;;;;;;;;;;5051593;28;20047;-72
2023/09/25 08:20:13;;;;;;;5.03;1.50;;;;;;;;;;5051363;28;20055;-70
2023/09/25 08:22:41;;;;;;;9.95;1.90;;;;;;;;;;5051487;28;20078;-71
2023/09/25 08:25:09;;;;;;;3.65;1.45;;;;;;;;;;5050563;28;20044;-71
2023/09/25 08:27:39;;;;;;;3.63;1.80;;;;;;;;;;5050977;28;20055;-72
2023/09/25 08:30:06;;;;;;;4.68;1.50;;;;;;;;;;5050734;28;20098;-73
2023/09/25 08:32:33;;;;;;;3.65;1.50;;;;;;;;;;5050899;28;20037;-72
2023/09/25 08:35:01;;;;;;;3.90;1.55;;;;;;;;;;5049997;28;20167;-72
2023/09/25 08:37:31;;;;;;;5.28;1.52;;;;;;;;;;5051155;28;20060;-72
2023/09/25 08:39:58;;;;;;;4.07;1.50;;;;;;;;;;5051014;28;20059;-71
2023/09/25 08:42:26;;;;;;;7.10;1.55;;;;;;;;;;5051120;28;20128;-71
2023/09/25 08:44:56;;;;;;;5.90;2.17;;;;;;;;;;5050404;28;20119;-68
2023/09/25 08:47:23;;;;;;;6.43;1.52;;;;;;;;;;5049597;28;20144;-70
2023/09/25 08:49:50;;;;;;;6.40;1.67;;;;;;;;;;5050476;28;20045;-68
2023/09/25 08:52:21;;;;;;;5.53;1.58;;;;;;;;;;5050362;28;20049;-68
2023/09/25 08:54:51;;;;;;;6.45;1.45;;;;;;;;;;5050576;28;20055;-71
2023/09/25 08:57:19;;;;;;;2.60;1.40;;;;;;;;;;5050431;28;20072;-69
2023/09/25 08:59:49;;;;;;;3.55;1.50;;;;;;;;;;5050042;28;20045;-70
2023/09/25 09:02:16;;;;;;;;;;;;;;;;;;5050874;28;20532;-72
2023/09/25 09:04:43;;;;;;;3.47;1.42;;;;;;;;;;5050787;28;19932;-72
2023/09/25 09:07:11;;;;;;;5.80;1.60;;;;;;;;;;5050238;28;20045;-72
2023/09/25 09:09:40;;;;;;;5.13;2.00;;;;;;;;;;5049959;28;20536;-69
2023/09/25 09:12:07;;;;;;;3.63;1.50;;;;;;;;;;5050272;28;20120;-72
2023/09/25 09:14:40;;;;;;;3.13;1.38;;;;;;;;;;5050060;28;20075;-72
2023/09/25 09:17:09;;;;;;;4.63;1.58;;;;;;;;;;5049865;28;20045;-72
2023/09/25 09:19:39;;;;;;;3.20;1.40;;;;;;;;;;5049690;28;20480;-72
2023/09/25 09:22:08;;;;;;;4.72;1.50;;;;;;;;;;5049973;28;20080;-69
2023/09/25 09:24:39;;;;;;;2.53;1.42;;;;;;;;;;5049961;28;20060;-69
2023/09/25 09:27:07;;;;;;;5.68;1.90;;;;;;;;;;5049719;28;20045;-73
2023/09/25 09:29:43;;;;;;;6.93;1.73;;;;;;;;;;5050005;28;20051;-68
2023/09/25 09:32:11;;;;;;;7.53;1.70;;;;;;;;;;5049573;28;20049;-73
2023/09/25 09:34:41;;;;;;;3.70;1.50;;;;;;;;;;5049538;28;20726;-73
2023/09/25 09:37:13;;;;;;;5.65;1.63;;;;;;;;;;5049833;28;20132;-72
2023/09/25 09:39:45;;;;;;;6.30;2.10;;;;;;;;;;5049599;28;20045;-72
2023/09/25 09:42:12;;;;;;;6.07;1.90;;;;;;;;;;5049995;28;20041;-72
2023/09/25 09:44:38;;;;;;;6.60;1.90;;;;;;;;;;5050339;28;20045;-71
2023/09/25 09:47:08;;;;;;;7.18;1.80;;;;;;;;;;5048703;28;20049;-72
2023/09/25 09:49:41;;;;;;;5.35;2.03;;;;;;;;;;5049808;28;20114;-73
2023/09/25 09:52:10;;;;;;;3.85;1.70;;;;;;;;;;5049214;28;20048;-73
2023/09/25 09:54:40;;;;;;;3.38;1.73;;;;;;;;;;5049489;28;20102;-72
2023/09/25 09:57:07;;;;;;;4.18;1.60;;;;;;;;;;5049308;28;20072;-73
2023/09/25 09:59:34;;;;;;;3.97;1.75;;;;;;;;;;5049720;28;20057;-72
2023/09/25 10:02:02;;;;;;;7.32;2.00;;;;;;;;;;5049254;28;20041;-71
2023/09/25 10:04:32;;;;;;;5.65;1.80;;;;;;;;;;5049363;28;20417;-72
2023/09/25 10:07:08;;;;;;;5.28;1.90;;;;;;;;;;5049120;28;20044;-71
2023/09/25 10:09:35;;;;;;;6.18;1.98;;;;;;;;;;5049313;28;20052;-73
2023/09/25 10:12:02;;;;;;;7.53;1.85;;;;;;;;;;5048932;28;20413;-71
2023/09/25 10:14:37;;;;;;;6.38;1.70;;;;;;;;;;5049334;28;20049;-72
2023/09/25 10:17:05;;;;;;;5.82;1.90;;;;;;;;;;5049000;28;20140;-71
2023/09/25 10:19:41;;;;;;;4.43;1.85;;;;;;;;;;5049320;28;20528;-70
2023/09/25 10:22:26;;;;;;;5.25;1.95;;;;;;;;;;5049271;28;20544;-73
2023/09/25 10:25:09;;;;;;;3.17;1.65;;;;;;;;;;5048955;28;20442;-69
2023/09/25 10:27:36;;;;;;;5.20;1.67;;;;;;;;;;5031977;28;20052;-69
2023/09/25 10:30:12;;;;;;;3.10;1.52;;;;;;;;;;5048929;28;20053;-73
2023/09/25 10:32:41;;;;;;;3.97;1.75;;;;;;;;;;5048870;28;20082;-69
2023/09/25 10:35:40;;;;;;;5.30;1.60;;;;;;;;;;5031616;28;20417;-72
2023/09/25 10:38:21;;;;;;;3.95;1.80;;;;;;;;;;5048908;28;20045;-68
2023/09/25 10:41:02;;;;;;;5.05;1.73;;;;;;;;;;5049174;28;20055;-68
2023/09/25 10:43:30;;;;;;;4.35;1.67;;;;;;;;;;5049246;28;20072;-71
2023/09/25 10:45:57;;;;;;;8.07;1.70;;;;;;;;;;5049008;28;20049;-73
2023/09/25 10:48:26;;;;;;;2.85;1.50;;;;;;;;;;5048934;28;20052;-70
2023/09/25 10:50:54;;;;;;;3.22;1.52;;;;;;;;;;5048792;28;20052;-70
2023/09/25 10:53:23;;;;;;;4.13;1.88;;;;;;;;;;5048873;28;20464;-72
2023/09/25 10:55:50;;;;;;;5.47;1.80;;;;;;;;;;5049316;28;20277;-68
2023/09/25 10:58:18;;;;;;;3.80;1.80;;;;;;;;;;5050580;28;20045;-72
2023/09/25 11:00:48;;;;;;;5.28;1.80;;;;;;;;;;5052899;28;20053;-68
2023/09/25 11:03:15;;;;;;;5.80;1.75;;;;;;;;;;5052858;28;20045;-69
2023/09/25 11:05:42;;;;;;;3.50;1.60;;;;;;;;;;5052406;28;20535;-69
2023/09/25 11:08:16;;;;;;;4.82;1.70;;;;;;;;;;5052435;28;20048;-70
2023/09/25 11:10:45;;;;;;;4.80;2.03;;;;;;;;;;5034539;28;20056;-72
2023/09/25 11:13:12;;;;;;;4.25;1.65;;;;;;;;;;5052657;28;20132;-68
2023/09/25 11:15:40;;;;;;;5.13;1.90;;;;;;;;;;5052687;28;20049;-68
2023/09/25 11:18:09;;;;;;;3.97;2.03;;;;;;;;;;5052366;28;20049;-72
2023/09/25 11:20:41;;;;;;;5.13;1.42;;;;;;;;;;5035102;28;20045;-68
2023/09/25 11:23:10;;;;;;;4.38;1.83;;;;;;;;;;5051986;28;20044;-70
2023/09/25 11:25:43;;;;;;;2.83;1.50;;;;;;;;;;5052665;28;20048;-68
2023/09/25 11:28:14;;;;;;;4.22;1.70;;;;;;;;;;5052035;28;20056;-69
2023/09/25 11:30:46;;;;;;;3.85;1.67;;;;;;;;;;5052676;28;20259;-68
2023/09/25 11:33:21;;;;;;;5.68;1.88;;;;;;;;;;5051827;28;20623;-73
2023/09/25 11:35:52;;;;;;;3.85;1.58;;;;;;;;;;5052433;28;20049;-70
2023/09/25 11:38:23;;;;;;;3.75;1.70;;;;;;;;;;5051525;28;20116;-75
2023/09/25 11:40:52;;;;;;;3.75;1.80;;;;;;;;;;5051850;28;20409;-72
2023/09/25 11:43:19;;;;;;;2.45;1.40;;;;;;;;;;5051902;28;20131;-67
2023/09/25 11:45:46;;;;;;;3.20;1.60;;;;;;;;;;5052124;28;20051;-69
2023/09/25 11:48:16;;;;;;;5.43;1.60;;;;;;;;;;5051707;28;20045;-70
2023/09/25 11:50:43;;;;;;;3.45;1.70;;;;;;;;;;5051611;28;20424;-68
2023/09/25 11:53:13;;;;;;;2.40;1.23;;;;;;;;;;5051669;28;20060;-73
2023/09/25 11:55:40;;;;;;;3.00;1.45;;;;;;;;;;5051964;28;20048;-68
2023/09/25 11:58:10;;;;;;;3.15;1.60;;;;;;;;;;5051222;28;20049;-69
2023/09/25 12:00:39;;;;;;;3.60;1.50;;;;;;;;;;5051700;28;20106;-70
2023/09/25 12:03:07;;;;;;;3.03;1.60;;;;;;;;;;5051564;28;20051;-71
2023/09/25 12:05:36;;;;;;;2.53;1.60;;;;;;;;;;5051474;28;20045;-69
2023/09/25 12:08:04;;;;;;;2.33;1.40;;;;;;;;;;5050928;28;20489;-69
2023/09/25 12:10:37;;;;;;;2.65;1.48;;;;;;;;;;5050339;28;20056;-68
2023/09/25 12:13:06;;;;;;;3.17;1.80;;;;;;;;;;5051376;28;20095;-68
2023/09/25 12:15:33;;;;;;;2.75;1.58;;;;;;;;;;5051395;28;20100;-71
2023/09/25 12:18:00;;;;;;;3.10;1.42;;;;;;;;;;5051012;28;20049;-72
2023/09/25 12:20:27;;;;;;;4.13;1.60;;;;;;;;;;5051224;28;20056;-70
2023/09/25 12:22:55;;;;;;;7.35;1.60;;;;;;;;;;5050770;28;20382;-69
2023/09/25 12:25:22;;;;;;;3.30;1.70;;;;;;;;;;5051138;28;20103;-70
2023/09/25 12:27:49;;;;;;;5.13;1.73;;;;;;;;;;5050684;28;20041;-72
2023/09/25 12:30:17;;;;;;;2.70;1.50;;;;;;;;;;5051023;28;20056;-68
2023/09/25 12:32:48;;;;;;;3.17;1.60;;;;;;;;;;5050866;28;20041;-73
2023/09/25 12:35:16;;;;;;;5.60;1.67;;;;;;;;;;5051034;28;20045;-68
2023/09/25 12:37:44;;;;;;;2.47;1.48;;;;;;;;;;5050792;28;20045;-71
2023/09/25 12:40:16;;;;;;;2.17;1.40;;;;;;;;;;5051044;28;20048;-68
2023/09/25 12:42:44;;;;;;;2.33;1.42;;;;;;;;;;5050887;28;20052;-68
2023/09/25 12:45:21;;;;;;;2.67;1.48;;;;;;;;;;5050883;28;20045;-69
2023/09/25 12:47:49;;;;;;;3.58;1.55;;;;;;;;;;5050446;28;20052;-68
2023/09/25 12:50:15;;;;;;;2.40;1.38;;;;;;;;;;5050511;28;20115;-68
2023/09/25 12:52:42;;;;;;;2.97;1.33;;;;;;;;;;5049934;28;20368;-71
2023/09/25 12:55:09;;;;;;;2.42;1.42;;;;;;;;;;5050399;28;20045;-72
2023/09/25 12:57:36;;;;;;;2.35;1.30;;;;;;;;;;5050172;28;20528;-70
2023/09/25 13:00:04;;;;;;;2.42;1.38;;;;;;;;;;5050569;28;20049;-68
2023/09/25 13:02:31;;;;;;;4.32;1.42;;;;;;;;;;5050543;28;20041;-73
2023/09/25 13:04:58;;;;;;;2.55;1.40;;;;;;;;;;5050709;28;20072;-73
2023/09/25 13:07:25;;;;;;;3.28;1.50;;;;;;;;;;5050024;28;20114;-74
2023/09/25 13:09:52;;;;;;;5.28;1.58;;;;;;;;;;5050241;28;20048;-69
2023/09/25 13:12:19;;;;;;;2.03;1.30;;;;;;;;;;5049929;28;20049;-70
2023/09/25 13:14:45;;;;;;;2.30;1.30;;;;;;;;;;5050315;28;20139;-69
2023/09/25 13:17:12;;;;;;;3.10;1.30;;;;;;;;;;5049829;28;20132;-71
2023/09/25 13:19:41;;;;;;;2.55;1.25;;;;;;;;;;5050014;28;20056;-74
2023/09/25 13:22:11;;;;;;;2.42;1.17;;;;;;;;;;5049917;28;20057;-69
2023/09/25 13:24:57;;;;;;;2.73;1.47;;;;;;;;;;5049904;28;20130;-67
2023/09/25 13:27:24;;;;;;;2.63;1.40;;;;;;;;;;5049775;28;20568;-72
2023/09/25 13:29:51;;;;;;;2.95;1.30;;;;;;;;;;5049750;28;20152;-70
2023/09/25 13:32:18;;;;;;;4.15;1.30;;;;;;;;;;5049560;28;20392;-68
2023/09/25 13:34:44;;;;;;;2.20;1.30;;;;;;;;;;5050148;28;20056;-68
2023/09/25 13:37:11;;;;;;;1.88;1.30;;;;;;;;;;5049746;28;20362;-69
2023/09/25 13:39:39;;;;;;;1.92;1.20;;;;;;;;;;5049559;28;20049;-68
2023/09/25 13:42:06;;;;;;;2.97;1.30;;;;;;;;;;5050009;28;20055;-68
2023/09/25 13:44:34;;;;;;;2.45;1.17;;;;;;;;;;5049512;28;20045;-68
2023/09/25 13:47:00;;;;;;;2.70;1.40;;;;;;;;;;5031909;28;20045;-68
2023/09/25 13:49:27;;;;;;;1.98;1.10;;;;;;;;;;5049456;28;20047;-69
2023/09/25 13:51:55;;;;;;;2.55;1.20;;;;;;;;;;5049515;28;20053;-67
2023/09/25 13:54:22;;;;;;;3.53;1.30;;;;;;;;;;5049060;28;20052;-69
2023/09/25 13:56:49;;;;;;;2.88;1.20;;;;;;;;;;5049766;28;20052;-68
2023/09/25 13:59:17;;;;;;;2.45;1.27;;;;;;;;;;5049129;28;20695;-68
2023/09/25 14:01:46;;;;;;;2.55;1.40;;;;;;;;;;5049422;28;20087;-69
2023/09/25 14:04:13;;;;;;;;;;;;;;;;;;5049599;28;20099;-67
2023/09/25 14:06:41;;;;;;;2.78;1.20;;;;;;;;;;5049458;28;19967;-70
2023/09/25 14:09:09;;;;;;;2.10;1.40;;;;;;;;;;5049342;28;20041;-68
2023/09/25 14:11:36;;;;;;;3.47;1.30;;;;;;;;;;5049492;28;20049;-68
2023/09/25 14:14:04;;;;;;;2.70;1.50;;;;;;;;;;5031635;28;20052;-70
2023/09/25 14:16:30;;;;;;;1.85;1.20;;;;;;;;;;5049700;28;20148;-67
2023/09/25 14:18:57;;;;;;;4.63;1.20;;;;;;;;;;5049361;28;20049;-67
2023/09/25 14:21:24;;;;;;;1.98;1.10;;;;;;;;;;5031360;28;20049;-71
2023/09/25 14:23:51;;;;;;;2.08;1.05;;;;;;;;;;5049040;28;20463;-69
2023/09/25 14:26:18;;;;;;;2.70;1.13;;;;;;;;;;5049659;28;20045;-68
2023/09/25 14:28:45;;;;;;;2.90;1.10;;;;;;;;;;5048870;28;20051;-69
2023/09/25 14:31:11;;;;;;;1.98;1.02;;;;;;;;;;5049075;28;20092;-68
2023/09/25 14:33:39;;;;;;;1.55;1.10;;;;;;;;;;5050661;28;20049;-68
2023/09/25 14:36:06;;;;;;;3.17;1.20;;;;;;;;;;5053574;28;20049;-70
2023/09/25 14:38:33;;;;;;;2.20;1.25;;;;;;;;;;5051650;28;20065;-73
2023/09/25 14:41:00;;;;;;;3.80;1.35;;;;;;;;;;5053060;28;20412;-69
2023/09/25 14:43:27;;;;;;;1.92;1.08;;;;;;;;;;5053006;28;20048;-69
2023/09/25 14:45:54;;;;;;;2.67;1.20;;;;;;;;;;5053477;28;20049;-70
2023/09/25 14:48:21;;;;;;;2.20;1.05;;;;;;;;;;5053090;28;20045;-68